createdAt,value
2017-08-13T05:31:28.195Z,14.54
2017-08-13T05:32:16.639Z,14.62
2017-08-13T05:32:42.033Z,14.68
2017-08-13T05:33:07.511Z,14.66
2017-08-13T05:33:32.969Z,14.59
2017-08-13T05:33:58.430Z,14.68
2017-08-13T05:34:23.911Z,14.78
2017-08-13T05:34:49.349Z,14.72
2017-08-13T05:35:14.812Z,14.73
2017-08-13T05:35:40.254Z,14.78
2017-08-13T05:36:05.753Z,14.68
2017-08-13T05:36:31.212Z,14.77
2017-08-13T05:36:56.691Z,14.72
2017-08-13T05:37:22.208Z,14.72
2017-08-13T05:37:47.738Z,14.78
2017-08-13T05:38:13.141Z,14.72
2017-08-13T05:38:38.611Z,14.81
2017-08-13T05:39:04.305Z,14.85
2017-08-13T05:39:29.860Z,14.85
2017-08-13T05:39:55.315Z,14.85
2017-08-13T05:40:20.804Z,14.81
2017-08-13T05:40:46.325Z,14.88
2017-08-13T05:41:11.780Z,14.94
2017-08-13T05:41:37.268Z,14.96
2017-08-13T05:42:02.704Z,14.92
2017-08-13T05:42:28.205Z,14.97
2017-08-13T05:42:53.625Z,15
2017-08-13T05:43:19.076Z,15.03
2017-08-13T05:43:44.635Z,14.94
2017-08-13T05:44:10.152Z,15
2017-08-13T05:44:35.642Z,14.97
2017-08-13T05:45:01.196Z,15.06
2017-08-13T05:45:26.637Z,15.07
2017-08-13T05:45:52.273Z,15.06
2017-08-13T05:46:17.674Z,15.06
2017-08-13T05:46:43.171Z,15.04
2017-08-13T05:47:08.604Z,15.06
2017-08-13T05:47:34.052Z,15.07
2017-08-13T05:47:59.533Z,15.18
2017-08-13T05:48:24.952Z,15.21
2017-08-13T05:48:50.441Z,15.19
2017-08-13T05:49:15.885Z,15.21
2017-08-13T05:49:41.344Z,15.17
2017-08-13T05:50:06.859Z,15.37
2017-08-13T05:50:32.319Z,15.33
2017-08-13T05:50:57.827Z,15.31
2017-08-13T05:51:23.451Z,15.31
2017-08-13T05:51:48.989Z,15.35
2017-08-13T05:52:14.487Z,15.36
2017-08-13T05:52:40.125Z,15.31
2017-08-13T05:53:05.697Z,15.42
2017-08-13T05:53:31.256Z,15.44
2017-08-13T05:53:56.921Z,15.37
2017-08-13T05:54:22.744Z,15.47
2017-08-13T05:54:48.218Z,15.47
2017-08-13T05:55:13.936Z,15.54
2017-08-13T05:55:39.572Z,15.51
2017-08-13T05:56:05.159Z,15.54
2017-08-13T05:56:30.534Z,15.52
2017-08-13T05:56:56.211Z,15.46
2017-08-13T05:57:22.279Z,15.57
2017-08-13T05:57:47.741Z,15.67
2017-08-13T05:58:13.342Z,15.62
2017-08-13T05:58:38.762Z,15.61
2017-08-13T05:59:04.360Z,15.59
2017-08-13T05:59:29.914Z,15.61
2017-08-13T05:59:55.444Z,15.62
2017-08-13T06:00:20.884Z,15.59
2017-08-13T06:00:46.483Z,15.68
2017-08-13T06:01:11.982Z,15.64
2017-08-13T06:01:37.553Z,15.64
2017-08-13T06:02:03.018Z,15.57
2017-08-13T06:02:28.512Z,15.68
2017-08-13T06:02:53.980Z,15.68
2017-08-13T06:03:19.404Z,15.68
2017-08-13T06:03:44.837Z,15.7
2017-08-13T06:04:10.333Z,15.72
2017-08-13T06:04:35.894Z,15.77
2017-08-13T06:05:01.320Z,15.76
2017-08-13T06:05:26.781Z,15.73
2017-08-13T06:05:52.317Z,15.76
2017-08-13T06:06:17.646Z,15.77
2017-08-13T06:06:43.236Z,15.8
2017-08-13T06:07:08.658Z,15.86
2017-08-13T06:07:34.290Z,15.88
2017-08-13T06:07:59.865Z,15.77
2017-08-13T06:08:25.293Z,15.86
2017-08-13T06:08:50.767Z,15.83
2017-08-13T06:09:16.180Z,15.86
2017-08-13T06:09:41.647Z,15.84
2017-08-13T06:10:07.122Z,15.94
2017-08-13T06:10:32.584Z,15.88
2017-08-13T06:10:58.092Z,16
2017-08-13T06:11:23.604Z,15.92
2017-08-13T06:11:49.059Z,16
2017-08-13T06:12:14.529Z,15.95
2017-08-13T06:12:39.972Z,16.02
2017-08-13T06:13:05.435Z,16.12
2017-08-13T06:13:30.920Z,16.08
2017-08-13T06:13:56.420Z,16.12
2017-08-13T06:14:21.847Z,16.13
2017-08-13T06:14:47.304Z,16.2
2017-08-13T06:15:12.742Z,16.12
2017-08-13T06:15:38.240Z,16.2
2017-08-13T06:16:03.663Z,16.21
2017-08-13T06:16:29.119Z,16.16
2017-08-13T06:16:54.535Z,16.17
2017-08-13T06:17:20.045Z,16.24
2017-08-13T06:17:45.623Z,16.26
2017-08-13T06:18:11.089Z,16.24
2017-08-13T06:18:36.609Z,16.2
2017-08-13T06:19:02.047Z,16.35
2017-08-13T06:19:27.500Z,16.28
2017-08-13T06:19:52.956Z,16.23
2017-08-13T06:20:18.415Z,16.23
2017-08-13T06:20:43.873Z,16.33
2017-08-13T06:21:09.318Z,16.26
2017-08-13T06:21:34.770Z,16.32
2017-08-13T06:22:00.228Z,16.41
2017-08-13T06:22:25.699Z,16.33
2017-08-13T06:22:51.160Z,16.46
2017-08-13T06:23:16.568Z,16.33
2017-08-13T06:23:42.063Z,16.43
2017-08-13T06:24:07.645Z,16.39
2017-08-13T06:24:33.085Z,16.47
2017-08-13T06:24:58.607Z,16.39
2017-08-13T06:25:24.028Z,16.46
2017-08-13T06:25:49.545Z,16.5
2017-08-13T06:26:15.012Z,16.51
2017-08-13T06:26:40.496Z,16.53
2017-08-13T06:27:05.945Z,16.51
2017-08-13T06:27:31.418Z,16.47
2017-08-13T06:27:56.866Z,16.6
2017-08-13T06:28:22.324Z,16.53
2017-08-13T06:28:47.891Z,16.64
2017-08-13T06:29:13.317Z,16.65
2017-08-13T06:29:38.752Z,16.65
2017-08-13T06:30:04.212Z,16.68
2017-08-13T06:30:29.655Z,16.72
2017-08-13T06:30:55.133Z,16.74
2017-08-13T06:31:20.638Z,16.68
2017-08-13T06:31:46.105Z,16.64
2017-08-13T06:32:11.623Z,16.71
2017-08-13T06:32:37.022Z,16.78
2017-08-13T06:33:02.526Z,16.83
2017-08-13T06:33:27.971Z,16.83
2017-08-13T06:33:53.423Z,16.84
2017-08-13T06:34:18.894Z,16.87
2017-08-13T06:34:44.498Z,16.87
2017-08-13T06:35:09.967Z,16.93
2017-08-13T06:35:35.422Z,16.86
2017-08-13T06:36:00.899Z,16.87
2017-08-13T06:36:26.317Z,16.97
2017-08-13T06:36:51.777Z,16.91
2017-08-13T06:37:17.280Z,16.9
2017-08-13T06:37:42.786Z,16.93
2017-08-13T06:38:08.201Z,16.96
2017-08-13T06:38:33.714Z,16.89
2017-08-13T06:38:59.286Z,16.99
2017-08-13T06:39:24.707Z,16.99
2017-08-13T06:39:50.242Z,17.04
2017-08-13T06:40:15.694Z,17.04
2017-08-13T06:40:41.176Z,17.09
2017-08-13T06:41:06.676Z,17.05
2017-08-13T06:41:32.223Z,17.04
2017-08-13T06:41:57.691Z,17.05
2017-08-13T06:42:23.196Z,17.11
2017-08-13T06:42:48.657Z,17.14
2017-08-13T06:43:14.085Z,17.08
2017-08-13T06:43:39.556Z,17.12
2017-08-13T06:44:05.107Z,17.12
2017-08-13T06:44:30.705Z,17.19
2017-08-13T06:44:56.177Z,17.22
2017-08-13T06:45:21.677Z,17.23
2017-08-13T06:45:47.124Z,17.23
2017-08-13T06:46:12.634Z,17.33
2017-08-13T06:46:38.123Z,17.27
2017-08-13T06:47:03.641Z,17.24
2017-08-13T06:47:29.108Z,17.31
2017-08-13T06:47:54.658Z,17.33
2017-08-13T06:48:20.187Z,17.34
2017-08-13T06:48:45.742Z,17.33
2017-08-13T06:49:11.133Z,17.48
2017-08-13T06:49:36.597Z,17.31
2017-08-13T06:50:02.111Z,17.33
2017-08-13T06:50:27.545Z,17.41
2017-08-13T06:50:53.011Z,17.48
2017-08-13T06:51:18.527Z,17.49
2017-08-13T06:51:44.212Z,17.49
2017-08-13T06:52:09.632Z,17.48
2017-08-13T06:52:35.104Z,17.45
2017-08-13T06:53:00.559Z,17.51
2017-08-13T06:53:26.026Z,17.54
2017-08-13T06:53:51.500Z,17.48
2017-08-13T06:54:16.945Z,17.51
2017-08-13T06:54:42.444Z,17.51
2017-08-13T06:55:07.870Z,17.48
2017-08-13T06:55:33.311Z,17.57
2017-08-13T06:55:58.789Z,17.6
2017-08-13T06:56:24.299Z,17.56
2017-08-13T06:56:49.757Z,17.63
2017-08-13T06:57:15.215Z,17.67
2017-08-13T06:57:40.693Z,17.57
2017-08-13T06:58:06.217Z,17.72
2017-08-13T06:59:09.873Z,17.71
2017-08-13T06:59:35.303Z,17.72
2017-08-13T07:00:00.831Z,17.72
2017-08-13T07:00:26.254Z,17.78
2017-08-13T07:00:51.709Z,17.76
2017-08-13T07:01:17.245Z,17.79
2017-08-13T07:01:42.655Z,17.79
2017-08-13T07:02:08.141Z,17.83
2017-08-13T07:02:33.723Z,17.79
2017-08-13T07:02:59.255Z,17.8
2017-08-13T07:03:24.797Z,17.8
2017-08-13T07:03:50.451Z,17.83
2017-08-13T07:04:16.065Z,17.9
2017-08-13T07:04:41.588Z,17.97
2017-08-13T07:05:07.031Z,17.86
2017-08-13T07:05:32.497Z,17.92
2017-08-13T07:05:58.013Z,17.94
2017-08-13T07:06:23.516Z,17.98
2017-08-13T07:06:49.101Z,17.92
2017-08-13T07:07:14.635Z,17.9
2017-08-13T07:07:40.184Z,17.95
2017-08-13T07:08:05.749Z,17.97
2017-08-13T07:08:31.368Z,17.92
2017-08-13T07:08:56.737Z,18.04
2017-08-13T07:09:22.273Z,18.07
2017-08-13T07:09:47.700Z,18.07
2017-08-13T07:10:13.155Z,18.08
2017-08-13T07:10:38.615Z,18.08
2017-08-13T07:11:04.108Z,18.08
2017-08-13T07:11:29.539Z,18.07
2017-08-13T07:11:54.987Z,18.05
2017-08-13T07:12:20.452Z,18.08
2017-08-13T07:12:45.898Z,18.08
2017-08-13T07:13:11.431Z,18.19
2017-08-13T07:13:36.876Z,18.19
2017-08-13T07:14:02.386Z,18.23
2017-08-13T07:14:27.818Z,18.11
2017-08-13T07:14:53.327Z,18.19
2017-08-13T07:15:18.798Z,18.25
2017-08-13T07:15:44.317Z,18.18
2017-08-13T07:16:09.772Z,18.08
2017-08-13T07:16:35.208Z,18.08
2017-08-13T07:17:00.661Z,18.07
2017-08-13T07:17:26.112Z,18.07
2017-08-13T07:17:51.647Z,18.18
2017-08-13T07:18:17.066Z,18.23
2017-08-13T07:18:42.550Z,18.05
2017-08-13T07:19:08.060Z,18.1
2017-08-13T07:19:33.518Z,18.13
2017-08-13T07:19:58.985Z,18.22
2017-08-13T07:20:24.470Z,18.25
2017-08-13T07:20:49.960Z,18.18
2017-08-13T07:21:15.389Z,18.18
2017-08-13T07:21:40.840Z,18.22
2017-08-13T07:22:06.513Z,18.26
2017-08-13T07:22:31.913Z,18.25
2017-08-13T07:22:57.378Z,18.31
2017-08-13T07:23:22.937Z,18.31
2017-08-13T07:23:48.431Z,18.29
2017-08-13T07:24:13.867Z,18.31
2017-08-13T07:24:39.409Z,18.35
2017-08-13T07:25:04.905Z,18.4
2017-08-13T07:25:30.424Z,18.33
2017-08-13T07:25:55.904Z,18.38
2017-08-13T07:26:21.487Z,18.34
2017-08-13T07:26:46.924Z,18.34
2017-08-13T07:27:12.457Z,18.4
2017-08-13T07:27:37.923Z,18.4
2017-08-13T07:28:03.412Z,18.41
2017-08-13T07:28:29.236Z,18.37
2017-08-13T07:28:54.722Z,18.38
2017-08-13T07:29:20.215Z,18.45
2017-08-13T07:29:45.762Z,18.43
2017-08-13T07:30:11.642Z,18.4
2017-08-13T07:30:37.137Z,18.44
2017-08-13T07:31:02.669Z,18.47
2017-08-13T07:31:28.779Z,18.5
2017-08-13T07:31:54.024Z,18.52
2017-08-13T07:32:19.727Z,18.55
2017-08-13T07:32:45.295Z,18.5
2017-08-13T07:33:10.816Z,18.6
2017-08-13T07:33:37.110Z,18.56
2017-08-13T07:34:02.649Z,18.65
2017-08-13T07:34:28.129Z,18.59
2017-08-13T07:34:53.820Z,18.53
2017-08-13T07:35:19.221Z,18.65
2017-08-13T07:35:44.800Z,18.75
2017-08-13T07:36:10.381Z,18.7
2017-08-13T07:36:36.024Z,18.75
2017-08-13T07:37:01.720Z,18.71
2017-08-13T07:37:27.412Z,18.74
2017-08-13T07:37:52.917Z,18.71
2017-08-13T07:38:18.601Z,18.7
2017-08-13T07:38:43.992Z,18.68
2017-08-13T07:39:09.571Z,18.75
2017-08-13T07:39:34.971Z,18.75
2017-08-13T07:40:00.545Z,18.74
2017-08-13T07:40:26.160Z,18.75
2017-08-13T07:40:51.673Z,18.84
2017-08-13T07:41:17.213Z,18.74
2017-08-13T07:41:42.704Z,18.86
2017-08-13T07:42:08.395Z,18.89
2017-08-13T07:42:33.906Z,18.88
2017-08-13T07:42:59.395Z,18.9
2017-08-13T07:43:25.164Z,18.93
2017-08-13T07:43:50.788Z,19
2017-08-13T07:44:16.312Z,18.98
2017-08-13T07:44:41.859Z,18.98
2017-08-13T07:45:07.541Z,19
2017-08-13T07:45:32.994Z,18.99
2017-08-13T07:45:58.474Z,19.04
2017-08-13T07:46:23.962Z,19.04
2017-08-13T07:46:49.894Z,19.04
2017-08-13T07:47:15.424Z,19.08
2017-08-13T07:47:40.993Z,19.02
2017-08-13T07:48:06.629Z,19.14
2017-08-13T07:48:32.157Z,19.09
2017-08-13T07:48:57.783Z,19.12
2017-08-13T07:49:23.546Z,19.14
2017-08-13T07:49:48.802Z,19.12
2017-08-13T07:50:14.382Z,19.21
2017-08-13T07:50:39.834Z,19.14
2017-08-13T07:51:05.337Z,19.24
2017-08-13T07:51:30.862Z,19.15
2017-08-13T07:51:56.368Z,19.16
2017-08-13T07:52:21.887Z,19.14
2017-08-13T07:52:47.462Z,19.16
2017-08-13T07:53:12.944Z,19.18
2017-08-13T07:53:38.386Z,19.19
2017-08-13T07:54:04.000Z,19.26
2017-08-13T07:54:29.442Z,19.19
2017-08-13T07:54:54.987Z,19.16
2017-08-13T07:55:20.513Z,19.21
2017-08-13T07:55:46.085Z,19.19
2017-08-13T07:56:11.579Z,19.16
2017-08-13T07:56:37.094Z,19.04
2017-08-13T07:57:03.550Z,19.12
2017-08-13T07:57:28.893Z,19.14
2017-08-13T07:57:54.421Z,19.11
2017-08-13T07:58:19.896Z,19.21
2017-08-13T07:58:45.570Z,19.18
2017-08-13T07:59:10.959Z,19.24
2017-08-13T07:59:36.565Z,19.18
2017-08-13T08:00:02.049Z,19.26
2017-08-13T08:00:27.573Z,19.12
2017-08-13T08:00:53.277Z,19
2017-08-13T08:01:18.713Z,19.02
2017-08-13T08:01:44.150Z,19
2017-08-13T08:02:09.888Z,19
2017-08-13T08:02:35.439Z,19.04
2017-08-13T08:03:01.065Z,18.98
2017-08-13T08:03:26.574Z,18.96
2017-08-13T08:03:52.252Z,19.07
2017-08-13T08:04:17.616Z,19.04
2017-08-13T08:04:43.128Z,19.02
2017-08-13T08:05:08.731Z,19.07
2017-08-13T08:05:34.295Z,19.07
2017-08-13T08:05:59.808Z,19.02
2017-08-13T08:06:25.277Z,19.11
2017-08-13T08:06:50.718Z,19.21
2017-08-13T08:07:16.292Z,19.22
2017-08-13T08:07:41.774Z,19.21
2017-08-13T08:08:07.343Z,19.16
2017-08-13T08:08:32.891Z,19.19
2017-08-13T08:08:58.486Z,19.22
2017-08-13T08:09:24.213Z,19.24
2017-08-13T08:09:49.587Z,19.3
2017-08-13T08:10:15.077Z,19.24
2017-08-13T08:10:40.506Z,19.29
2017-08-13T08:11:06.057Z,19.24
2017-08-13T08:11:31.608Z,19.3
2017-08-13T08:11:57.130Z,19.31
2017-08-13T08:12:22.701Z,19.29
2017-08-13T08:12:48.190Z,19.26
2017-08-13T08:13:13.638Z,19.26
2017-08-13T08:13:39.100Z,19.4
2017-08-13T08:14:04.671Z,19.34
2017-08-13T08:14:30.094Z,19.33
2017-08-13T08:14:55.548Z,19.27
2017-08-13T08:15:21.068Z,19.37
2017-08-13T08:15:46.480Z,19.41
2017-08-13T08:16:11.985Z,19.47
2017-08-13T08:16:37.671Z,19.47
2017-08-13T08:17:03.098Z,19.4
2017-08-13T08:17:28.528Z,19.48
2017-08-13T08:17:54.185Z,19.51
2017-08-13T08:18:19.565Z,19.54
2017-08-13T08:18:45.097Z,19.52
2017-08-13T08:19:10.513Z,19.55
2017-08-13T08:19:36.030Z,19.56
2017-08-13T08:20:01.523Z,19.49
2017-08-13T08:20:27.084Z,19.63
2017-08-13T08:20:52.547Z,19.58
2017-08-13T08:21:18.109Z,19.55
2017-08-13T08:21:43.600Z,19.63
2017-08-13T08:22:09.112Z,19.63
2017-08-13T08:22:34.580Z,19.63
2017-08-13T08:23:00.057Z,19.71
2017-08-13T08:23:25.602Z,19.71
2017-08-13T08:23:51.190Z,19.71
2017-08-13T08:24:16.818Z,19.76
2017-08-13T08:24:42.223Z,19.77
2017-08-13T08:25:07.711Z,19.77
2017-08-13T08:25:33.184Z,19.76
2017-08-13T08:25:58.702Z,19.81
2017-08-13T08:26:24.193Z,19.84
2017-08-13T08:26:49.678Z,19.79
2017-08-13T08:27:15.139Z,19.77
2017-08-13T08:27:40.616Z,19.84
2017-08-13T08:28:06.147Z,19.85
2017-08-13T08:28:31.537Z,19.85
2017-08-13T08:28:57.025Z,19.85
2017-08-13T08:29:22.487Z,19.91
2017-08-13T08:29:47.991Z,19.84
2017-08-13T08:30:13.462Z,19.79
2017-08-13T08:30:38.941Z,19.77
2017-08-13T08:31:04.425Z,19.76
2017-08-13T08:31:29.903Z,19.85
2017-08-13T08:31:55.536Z,19.74
2017-08-13T08:32:21.013Z,19.81
2017-08-13T08:32:46.498Z,19.76
2017-08-13T08:33:12.053Z,19.74
2017-08-13T08:33:37.476Z,19.74
2017-08-13T08:34:03.033Z,19.71
2017-08-13T08:34:28.453Z,19.81
2017-08-13T08:34:53.982Z,19.79
2017-08-13T08:35:19.568Z,19.79
2017-08-13T08:35:45.006Z,19.79
2017-08-13T08:36:10.538Z,19.81
2017-08-13T08:36:35.989Z,19.73
2017-08-13T08:37:01.498Z,19.81
2017-08-13T08:37:26.995Z,19.77
2017-08-13T08:37:52.558Z,19.76
2017-08-13T08:38:18.136Z,19.74
2017-08-13T08:38:43.671Z,19.73
2017-08-13T08:39:09.335Z,19.76
2017-08-13T08:39:34.676Z,19.73
2017-08-13T08:40:00.232Z,19.82
2017-08-13T08:40:25.716Z,19.81
2017-08-13T08:40:51.140Z,19.71
2017-08-13T08:41:16.625Z,19.84
2017-08-13T08:41:42.042Z,19.74
2017-08-13T08:42:08.058Z,19.7
2017-08-13T08:42:33.922Z,19.76
2017-08-13T08:42:59.317Z,19.76
2017-08-13T08:43:24.757Z,19.84
2017-08-13T08:43:50.354Z,19.86
2017-08-13T08:44:15.812Z,19.81
2017-08-13T08:44:41.308Z,19.89
2017-08-13T08:45:06.742Z,19.81
2017-08-13T08:45:32.360Z,19.89
2017-08-13T08:45:57.957Z,19.99
2017-08-13T08:46:23.534Z,19.94
2017-08-13T08:46:49.043Z,19.99
2017-08-13T08:47:14.566Z,20.02
2017-08-13T08:47:40.066Z,20.07
2017-08-13T08:48:05.612Z,20
2017-08-13T08:48:31.181Z,20.06
2017-08-13T08:48:56.627Z,20.07
2017-08-13T08:49:22.497Z,20.04
2017-08-13T08:49:48.213Z,20.14
2017-08-13T08:50:13.574Z,20.06
2017-08-13T08:50:39.197Z,20.13
2017-08-13T08:51:04.644Z,20.21
2017-08-13T08:51:30.335Z,20.18
2017-08-13T08:51:55.896Z,20.18
2017-08-13T08:52:21.294Z,20.13
2017-08-13T08:52:46.764Z,20.14
2017-08-13T08:53:12.245Z,20.29
2017-08-13T08:53:37.930Z,20.29
2017-08-13T08:54:03.462Z,20.31
2017-08-13T08:54:28.992Z,20.29
2017-08-13T08:54:54.440Z,20.29
2017-08-13T08:55:19.905Z,20.28
2017-08-13T08:55:45.430Z,20.31
2017-08-13T08:56:10.986Z,20.37
2017-08-13T08:56:36.467Z,20.4
2017-08-13T08:57:01.960Z,20.41
2017-08-13T08:57:27.408Z,20.5
2017-08-13T08:57:52.988Z,20.48
2017-08-13T08:58:18.414Z,20.44
2017-08-13T08:58:43.913Z,20.47
2017-08-13T08:59:09.684Z,20.44
2017-08-13T08:59:35.121Z,20.52
2017-08-13T09:00:00.692Z,20.52
2017-08-13T09:00:26.175Z,20.51
2017-08-13T09:00:51.603Z,20.58
2017-08-13T09:01:17.052Z,20.65
2017-08-13T09:01:42.559Z,20.63
2017-08-13T09:02:08.047Z,20.67
2017-08-13T09:02:33.508Z,20.65
2017-08-13T09:02:58.948Z,20.67
2017-08-13T09:03:24.379Z,20.72
2017-08-13T09:03:49.895Z,20.77
2017-08-13T09:04:15.295Z,20.74
2017-08-13T09:04:40.825Z,20.77
2017-08-13T09:05:06.555Z,20.78
2017-08-13T09:05:31.979Z,20.78
2017-08-13T09:05:57.394Z,20.78
2017-08-13T09:06:22.962Z,20.8
2017-08-13T09:06:48.568Z,20.82
2017-08-13T09:07:14.175Z,20.87
2017-08-13T09:07:39.571Z,20.84
2017-08-13T09:08:05.281Z,20.88
2017-08-13T09:08:30.636Z,20.87
2017-08-13T09:08:56.102Z,20.81
2017-08-13T09:09:21.624Z,20.82
2017-08-13T09:09:47.102Z,20.82
2017-08-13T09:10:12.527Z,20.84
2017-08-13T09:10:38.021Z,20.92
2017-08-13T09:11:03.476Z,20.95
2017-08-13T09:11:28.915Z,20.92
2017-08-13T09:11:54.405Z,20.95
2017-08-13T09:12:19.825Z,20.9
2017-08-13T09:12:45.528Z,20.95
2017-08-13T09:13:10.932Z,20.93
2017-08-13T09:13:36.473Z,20.87
2017-08-13T09:14:02.012Z,20.97
2017-08-13T09:14:27.515Z,20.95
2017-08-13T09:14:53.008Z,20.92
2017-08-13T09:15:18.691Z,20.84
2017-08-13T09:15:44.102Z,20.9
2017-08-13T09:16:09.554Z,20.96
2017-08-13T09:16:35.114Z,20.85
2017-08-13T09:17:00.726Z,20.95
2017-08-13T09:17:26.289Z,20.96
2017-08-13T09:17:51.803Z,20.93
2017-08-13T09:18:17.288Z,20.92
2017-08-13T09:18:42.769Z,21.06
2017-08-13T09:19:08.290Z,21.03
2017-08-13T09:19:33.698Z,21
2017-08-13T09:19:59.313Z,21.05
2017-08-13T09:20:24.810Z,21.03
2017-08-13T09:20:50.409Z,21.06
2017-08-13T09:21:15.794Z,21.12
2017-08-13T09:21:41.270Z,21.11
2017-08-13T09:22:06.786Z,21.07
2017-08-13T09:22:32.426Z,21.06
2017-08-13T09:22:58.001Z,21.06
2017-08-13T09:23:23.626Z,21.17
2017-08-13T09:23:49.272Z,21.14
2017-08-13T09:24:14.688Z,21.09
2017-08-13T09:24:40.145Z,21.09
2017-08-13T09:25:05.604Z,21.21
2017-08-13T09:25:31.104Z,21.14
2017-08-13T09:25:56.605Z,21.17
2017-08-13T09:26:22.058Z,21.15
2017-08-13T09:26:47.539Z,21.22
2017-08-13T09:27:13.058Z,21.24
2017-08-13T09:27:38.459Z,21.25
2017-08-13T09:28:03.918Z,21.3
2017-08-13T09:28:29.488Z,21.35
2017-08-13T09:28:54.965Z,21.35
2017-08-13T09:29:20.456Z,21.25
2017-08-13T09:29:45.927Z,21.33
2017-08-13T09:30:11.402Z,21.27
2017-08-13T09:30:36.855Z,21.29
2017-08-13T09:31:02.369Z,21.3
2017-08-13T09:31:27.899Z,21.3
2017-08-13T09:31:53.359Z,21.22
2017-08-13T09:32:18.860Z,21.25
2017-08-13T09:32:44.319Z,21.24
2017-08-13T09:33:09.893Z,21.25
2017-08-13T09:33:35.432Z,21.29
2017-08-13T09:34:00.855Z,21.24
2017-08-13T09:34:26.317Z,21.29
2017-08-13T09:34:51.776Z,21.25
2017-08-13T09:35:17.276Z,21.29
2017-08-13T09:35:42.694Z,21.25
2017-08-13T09:36:08.178Z,21.24
2017-08-13T09:36:33.617Z,21.24
2017-08-13T09:36:59.103Z,21.24
2017-08-13T09:37:24.523Z,21.27
2017-08-13T09:37:50.019Z,21.17
2017-08-13T09:38:15.492Z,21.11
2017-08-13T09:38:41.083Z,21.17
2017-08-13T09:39:06.666Z,21.15
2017-08-13T09:39:32.265Z,21.18
2017-08-13T09:39:57.679Z,21.15
2017-08-13T09:40:23.269Z,21.2
2017-08-13T09:40:48.744Z,21.14
2017-08-13T09:41:14.175Z,21.17
2017-08-13T09:41:39.920Z,21.18
2017-08-13T09:42:05.671Z,21.18
2017-08-13T09:42:31.416Z,21.14
2017-08-13T09:42:57.128Z,21.17
2017-08-13T09:43:22.860Z,21.15
2017-08-13T09:43:48.988Z,21.25
2017-08-13T09:44:14.603Z,21.33
2017-08-13T09:44:40.090Z,21.36
2017-08-13T09:45:05.691Z,21.37
2017-08-13T09:45:31.141Z,21.46
2017-08-13T09:45:56.751Z,21.46
2017-08-13T09:46:22.107Z,21.42
2017-08-13T09:46:47.717Z,21.5
2017-08-13T09:47:13.150Z,21.51
2017-08-13T09:47:38.946Z,21.6
2017-08-13T09:48:04.299Z,21.54
2017-08-13T09:48:29.991Z,21.6
2017-08-13T09:48:55.493Z,21.55
2017-08-13T09:49:21.140Z,21.67
2017-08-13T09:49:46.617Z,21.69
2017-08-13T09:50:12.411Z,21.76
2017-08-13T09:50:38.144Z,21.79
2017-08-13T09:51:03.686Z,21.82
2017-08-13T09:51:29.504Z,21.8
2017-08-13T09:51:54.786Z,21.93
2017-08-13T09:52:20.514Z,21.92
2017-08-13T09:52:46.134Z,22.02
2017-08-13T09:53:12.176Z,21.96
2017-08-13T09:53:37.526Z,21.91
2017-08-13T09:54:02.904Z,21.92
2017-08-13T09:54:28.400Z,22.1
2017-08-13T09:54:53.897Z,21.99
2017-08-13T09:55:19.391Z,21.98
2017-08-13T09:55:44.859Z,22.1
2017-08-13T09:56:10.706Z,21.99
2017-08-13T09:56:36.141Z,22.15
2017-08-13T09:57:01.532Z,22.08
2017-08-13T09:57:27.234Z,22.2
2017-08-13T09:57:52.951Z,22.17
2017-08-13T09:58:18.529Z,22.14
2017-08-13T09:58:44.174Z,22.08
2017-08-13T09:59:09.687Z,22.13
2017-08-13T09:59:35.337Z,22.15
2017-08-13T10:00:00.820Z,22.2
2017-08-13T10:00:26.433Z,22.15
2017-08-13T10:00:51.774Z,22
2017-08-13T10:01:17.486Z,22.08
2017-08-13T10:01:42.948Z,22.02
2017-08-13T10:02:08.708Z,22.04
2017-08-13T10:02:34.393Z,22
2017-08-13T10:02:59.722Z,22
2017-08-13T10:03:25.176Z,22.04
2017-08-13T10:03:50.678Z,21.96
2017-08-13T10:04:16.174Z,22.07
2017-08-13T10:04:41.602Z,22.06
2017-08-13T10:05:07.092Z,22
2017-08-13T10:05:32.561Z,22.07
2017-08-13T10:05:58.053Z,22.13
2017-08-13T10:06:23.536Z,22.17
2017-08-13T10:06:49.081Z,22.13
2017-08-13T10:07:14.729Z,22.14
2017-08-13T10:07:40.222Z,22.22
2017-08-13T10:08:05.758Z,22.13
2017-08-13T10:08:31.388Z,22.13
2017-08-13T10:08:57.362Z,22.13
2017-08-13T10:09:22.970Z,22.14
2017-08-13T10:09:48.639Z,22.1
2017-08-13T10:10:14.040Z,22.15
2017-08-13T10:10:39.491Z,22.17
2017-08-13T10:11:05.358Z,22.15
2017-08-13T10:11:31.070Z,22.2
2017-08-13T10:11:56.507Z,22.15
2017-08-13T10:12:22.064Z,22.2
2017-08-13T10:12:47.505Z,22.28
2017-08-13T10:13:13.101Z,22.32
2017-08-13T10:13:38.529Z,22.32
2017-08-13T10:14:04.194Z,22.33
2017-08-13T10:14:29.754Z,22.36
2017-08-13T10:14:55.174Z,22.39
2017-08-13T10:15:20.998Z,22.38
2017-08-13T10:15:46.625Z,22.36
2017-08-13T10:16:12.348Z,22.36
2017-08-13T10:16:38.224Z,22.32
2017-08-13T10:17:03.756Z,22.29
2017-08-13T10:17:29.242Z,22.3
2017-08-13T10:17:54.688Z,22.29
2017-08-13T10:18:20.353Z,22.36
2017-08-13T10:18:46.160Z,22.32
2017-08-13T10:19:11.699Z,22.32
2017-08-13T10:19:37.198Z,22.35
2017-08-13T10:20:02.745Z,22.35
2017-08-13T10:20:28.253Z,22.32
2017-08-13T10:20:54.076Z,22.35
2017-08-13T10:21:19.212Z,22.3
2017-08-13T10:21:44.714Z,22.33
2017-08-13T10:22:10.351Z,22.33
2017-08-13T10:22:35.870Z,22.43
2017-08-13T10:23:01.368Z,22.41
2017-08-13T10:23:26.803Z,22.35
2017-08-13T10:23:52.364Z,22.43
2017-08-13T10:24:18.006Z,22.5
2017-08-13T10:24:43.312Z,22.5
2017-08-13T10:25:08.802Z,22.48
2017-08-13T10:25:34.317Z,22.5
2017-08-13T10:25:59.755Z,22.51
2017-08-13T10:26:25.216Z,22.48
2017-08-13T10:26:50.702Z,22.45
2017-08-13T10:27:16.109Z,22.47
2017-08-13T10:27:41.731Z,22.53
2017-08-13T10:28:07.152Z,22.5
2017-08-13T10:28:32.628Z,22.5
2017-08-13T10:28:58.078Z,22.43
2017-08-13T10:29:23.554Z,22.43
2017-08-13T10:29:49.128Z,22.47
2017-08-13T10:30:14.569Z,22.39
2017-08-13T10:30:40.028Z,22.48
2017-08-13T10:31:05.527Z,22.48
2017-08-13T10:31:30.979Z,22.54
2017-08-13T10:31:56.492Z,22.45
2017-08-13T10:32:21.932Z,22.5
2017-08-13T10:32:47.416Z,22.48
2017-08-13T10:33:12.969Z,22.55
2017-08-13T10:33:38.448Z,22.62
2017-08-13T10:34:03.879Z,22.6
2017-08-13T10:34:29.363Z,22.6
2017-08-13T10:34:54.886Z,22.72
2017-08-13T10:35:20.340Z,22.69
2017-08-13T10:35:45.862Z,22.7
2017-08-13T10:36:11.310Z,22.73
2017-08-13T10:36:36.769Z,22.76
2017-08-13T10:37:02.286Z,22.76
2017-08-13T10:37:27.749Z,22.81
2017-08-13T10:37:53.221Z,22.81
2017-08-13T10:38:18.666Z,22.84
2017-08-13T10:38:44.161Z,22.78
2017-08-13T10:39:09.642Z,22.81
2017-08-13T10:39:35.114Z,22.87
2017-08-13T10:40:00.559Z,22.81
2017-08-13T10:40:26.032Z,22.85
2017-08-13T10:40:51.559Z,22.81
2017-08-13T10:41:17.038Z,22.76
2017-08-13T10:41:42.501Z,22.76
2017-08-13T10:42:08.015Z,22.72
2017-08-13T10:42:33.537Z,22.66
2017-08-13T10:42:59.012Z,22.73
2017-08-13T10:43:24.475Z,22.69
2017-08-13T10:43:49.965Z,22.63
2017-08-13T10:44:15.364Z,22.65
2017-08-13T10:44:40.868Z,22.53
2017-08-13T10:45:06.359Z,22.5
2017-08-13T10:45:31.819Z,22.39
2017-08-13T10:45:57.304Z,22.39
2017-08-13T10:46:22.780Z,22.39
2017-08-13T10:46:48.250Z,22.36
2017-08-13T10:47:13.820Z,22.3
2017-08-13T10:47:39.353Z,22.2
2017-08-13T10:48:04.896Z,22.23
2017-08-13T10:48:30.289Z,22.08
2017-08-13T10:48:55.798Z,22.13
2017-08-13T10:49:21.285Z,22.1
2017-08-13T10:49:46.762Z,22.06
2017-08-13T10:50:12.176Z,22.04
2017-08-13T10:50:37.649Z,21.98
2017-08-13T10:51:03.141Z,21.98
2017-08-13T10:51:28.616Z,21.91
2017-08-13T10:51:54.088Z,21.82
2017-08-13T10:52:19.571Z,21.76
2017-08-13T10:52:45.049Z,21.79
2017-08-13T10:53:10.616Z,21.7
2017-08-13T10:53:36.069Z,21.7
2017-08-13T10:54:01.557Z,21.62
2017-08-13T10:54:27.042Z,21.6
2017-08-13T10:54:52.494Z,21.62
2017-08-13T10:55:18.025Z,21.55
2017-08-13T10:55:43.434Z,21.57
2017-08-13T10:56:08.921Z,21.42
2017-08-13T10:56:34.392Z,21.4
2017-08-13T10:56:59.899Z,21.52
2017-08-13T10:57:25.341Z,21.45
2017-08-13T10:57:50.874Z,21.35
2017-08-13T10:58:16.388Z,21.43
2017-08-13T10:58:41.935Z,21.39
2017-08-13T10:59:07.404Z,21.42
2017-08-13T10:59:32.891Z,21.33
2017-08-13T10:59:58.342Z,21.29
2017-08-13T11:00:23.881Z,21.29
2017-08-13T11:00:49.265Z,21.25
2017-08-13T11:01:14.761Z,21.25
2017-08-13T11:01:40.306Z,21.18
2017-08-13T11:02:05.720Z,21.21
2017-08-13T11:02:31.204Z,21.21